Time;durP1;ratioP1;P1;durP2;ratioP2;P2;SDS_P1;SDS_P2;PMS_P1;PMS_P2;Temp;Humidity;BMP_temperature;BMP_pressure;BME280_temperature;BME280_humidity;BME280_pressure;Samples;Min_cycle;Max_cycle;Signal;HPM_P1;HPM_P2
2022/01/22 00:02:37;;;;;;;10.50;5.00;;;;;;;0.78;100.00;100762.05;3564883;81;98934;-83
2022/01/22 00:07:38;;;;;;;12.47;4.93;;;;;;;0.78;100.00;100760.70;3559696;81;98113;-83
2022/01/22 00:17:52;;;;;;;13.07;6.00;;;;;;;0.81;100.00;100772.30;3570415;81;26180;-83
2022/01/22 00:22:53;;;;;;;11.33;5.60;;;;;;;0.79;100.00;100766.39;3560468;81;98667;-83
2022/01/22 00:27:54;;;;;;;11.40;5.40;;;;;;;0.79;100.00;100766.39;3566401;81;99108;-83
2022/01/22 00:32:55;;;;;;;9.30;5.27;;;;;;;0.77;100.00;100763.73;3563939;81;99228;-83
2022/01/22 00:37:56;;;;;;;10.67;4.83;;;;;;;0.76;100.00;100760.75;3567215;81;98613;-83
2022/01/22 00:42:57;;;;;;;10.43;4.97;;;;;;;0.75;100.00;100764.03;3569947;81;99289;-83
2022/01/22 00:47:58;;;;;;;11.77;5.93;;;;;;;0.76;100.00;100763.47;3557915;81;98891;-83
2022/01/22 00:52:58;;;;;;;16.23;6.10;;;;;;;0.74;100.00;100769.20;3565561;81;98749;-83
2022/01/22 00:57:59;;;;;;;10.97;5.30;;;;;;;0.75;100.00;100780.28;3559131;81;98784;-83
2022/01/22 01:03:00;;;;;;;14.00;5.05;;;;;;;0.74;100.00;100777.34;3560158;81;98713;-83
2022/01/22 01:08:03;;;;;;;14.40;6.03;;;;;;;0.71;100.00;100780.63;3561597;81;98884;-83
2022/01/22 01:13:05;;;;;;;15.23;6.90;;;;;;;0.68;100.00;100779.91;3544902;81;98819;-83
2022/01/22 01:34:12;;;;;;;17.87;8.35;;;;;;;0.70;100.00;100792.58;3559401;81;99224;-83
2022/01/22 01:39:16;;;;;;;18.12;8.85;;;;;;;0.68;100.00;100792.63;3552735;81;98798;-83
2022/01/22 01:44:16;;;;;;;23.27;9.30;;;;;;;0.70;100.00;100801.25;3573693;81;98991;-83
2022/01/22 01:49:17;;;;;;;17.75;8.73;;;;;;;0.69;100.00;100802.36;3565682;81;98825;-83
2022/01/22 01:54:34;;;;;;;13.98;6.83;;;;;;;0.70;100.00;100799.35;3572366;81;99231;-83
2022/01/22 01:59:21;;;;;;;17.55;7.90;;;;;;;0.65;100.00;100799.99;3544664;81;98789;-83
2022/01/22 02:04:22;;;;;;;18.30;7.93;;;;;;;0.60;100.00;100812.31;3557066;81;98998;-83
2022/01/22 02:09:23;;;;;;;14.27;7.50;;;;;;;0.56;100.00;100808.59;3564268;81;98835;-83
2022/01/22 02:24:59;;;;;;;16.82;7.53;;;;;;;0.28;99.85;100815.11;3556914;81;99272;-83
2022/01/22 02:30:01;;;;;;;15.73;7.67;;;;;;;0.17;99.62;100818.53;3550686;81;98692;-83
2022/01/22 02:35:12;;;;;;;17.03;7.60;;;;;;;-0.05;99.82;100799.46;3568593;81;32004;-82
2022/01/22 02:40:12;;;;;;;18.90;8.25;;;;;;;-0.02;99.71;100828.64;3558087;81;99062;-82
2022/01/22 02:45:11;;;;;;;19.10;9.58;;;;;;;-0.11;99.47;100835.82;3558251;81;99178;-82
2022/01/22 02:50:13;;;;;;;28.87;12.93;;;;;;;-0.20;99.43;100844.34;3538685;81;98705;-82
2022/01/22 02:55:15;;;;;;;24.72;14.25;;;;;;;-0.27;99.44;100842.33;3567198;81;99486;-82
2022/01/22 03:00:21;;;;;;;25.23;12.43;;;;;;;-0.38;99.42;100846.30;3566633;81;99028;-82
2022/01/22 03:05:21;;;;;;;26.80;12.43;;;;;;;-0.47;99.15;100846.70;3546491;81;31413;-82
2022/01/22 03:10:25;;;;;;;24.63;11.70;;;;;;;-0.58;99.11;100850.65;3555689;81;99228;-82
2022/01/22 03:15:48;;;;;;;22.52;11.57;;;;;;;-0.67;99.05;100871.34;3558252;81;98904;-82
2022/01/22 03:31:02;;;;;;;22.22;11.15;;;;;;;-0.99;99.48;100884.17;3559609;81;99589;-83
2022/01/22 03:36:06;;;;;;;20.50;9.70;;;;;;;-1.07;99.57;100901.04;3572193;81;99643;-83
2022/01/22 03:41:07;;;;;;;21.12;10.15;;;;;;;-1.12;99.88;100911.08;3542949;81;98939;-82
2022/01/22 03:46:08;;;;;;;17.57;8.33;;;;;;;-1.19;100.00;100918.73;3561076;80;99415;-82
2022/01/22 03:51:09;;;;;;;16.60;7.77;;;;;;;-1.25;99.95;100929.34;3570906;81;99716;-83
2022/01/22 03:56:11;;;;;;;21.00;7.83;;;;;;;-1.32;99.89;100942.38;3568329;81;99478;-83
2022/01/22 04:02:00;;;;;;;19.23;8.00;;;;;;;-1.40;99.82;100945.16;3545319;81;99340;-83
2022/01/22 04:11:32;;;;;;;20.77;8.73;;;;;;;-1.57;99.74;100958.28;3557464;81;98950;-83
2022/01/22 04:16:36;;;;;;;21.52;9.60;;;;;;;-1.64;99.92;100957.78;3571736;81;99221;-82
2022/01/22 04:26:59;;;;;;;19.70;8.03;;;;;;;-1.75;100.00;100971.66;3564261;81;99505;-82
2022/01/22 04:31:58;;;;;;;15.43;6.03;;;;;;;-1.83;100.00;100991.95;3545585;81;99105;-82
2022/01/22 04:36:59;;;;;;;13.90;5.37;;;;;;;-1.88;100.00;101004.13;3563681;81;99533;-83
2022/01/22 04:42:00;;;;;;;14.60;5.57;;;;;;;-1.92;100.00;101009.81;3548177;81;99256;-82
2022/01/22 04:47:19;;;;;;;12.43;5.47;;;;;;;-1.95;100.00;101009.05;3570578;81;31068;-82
2022/01/22 04:57:32;;;;;;;18.12;6.87;;;;;;;-2.03;100.00;101031.76;3568659;81;99221;-82
2022/01/22 05:02:33;;;;;;;11.50;5.43;;;;;;;-2.07;100.00;101032.05;3555175;81;99175;-82
2022/01/22 05:07:34;;;;;;;12.50;5.30;;;;;;;-2.10;100.00;101042.02;3556594;81;99545;-81
2022/01/22 05:12:36;;;;;;;12.43;5.03;;;;;;;-2.13;100.00;101042.59;3564737;81;99317;-83
2022/01/22 05:17:40;;;;;;;12.05;5.10;;;;;;;-2.18;100.00;101051.50;3571965;81;31494;-82
2022/01/22 05:37:51;;;;;;;;;;;;;;;-2.29;100.00;101090.38;3568916;81;99274;-82
2022/01/22 05:42:52;;;;;;;13.23;4.53;;;;;;;-2.30;100.00;101094.16;3567883;81;84839;-82
2022/01/22 05:47:53;;;;;;;10.47;3.57;;;;;;;-2.34;100.00;101097.69;3569934;81;31604;-81
2022/01/22 05:53:01;;;;;;;10.50;3.27;;;;;;;-2.39;100.00;101101.22;3564064;81;99128;-82
2022/01/22 06:03:19;;;;;;;10.43;2.80;;;;;;;-2.44;100.00;101109.33;3566543;81;99712;-82
2022/01/22 06:08:21;;;;;;;7.25;2.50;;;;;;;-2.45;100.00;101117.15;3563285;81;108079;-83
2022/01/22 06:13:29;;;;;;;6.75;2.83;;;;;;;-2.48;100.00;101128.98;3551248;81;99294;-82
2022/01/22 06:18:25;;;;;;;6.62;2.25;;;;;;;-2.50;100.00;101140.59;3548819;80;99574;-83
2022/01/22 06:23:26;;;;;;;9.10;2.60;;;;;;;-2.50;100.00;101144.64;3575869;81;31394;-82
2022/01/22 06:28:28;;;;;;;6.73;2.60;;;;;;;-2.50;100.00;101167.02;3555892;81;100643;-82
2022/01/22 06:33:29;;;;;;;9.43;2.77;;;;;;;-2.50;100.00;101176.45;3544324;81;99038;-82
2022/01/22 06:38:30;;;;;;;9.70;3.00;;;;;;;-2.49;100.00;101183.45;3559262;81;99018;-81
2022/01/22 06:43:31;;;;;;;7.57;2.80;;;;;;;-2.48;100.00;101183.70;3555530;81;99064;-82
2022/01/22 06:48:33;;;;;;;11.30;4.67;;;;;;;-2.49;100.00;101192.05;3568262;81;99077;-81
2022/01/22 06:53:36;;;;;;;15.23;5.67;;;;;;;-2.48;100.00;101211.19;3555878;81;31572;-82
2022/01/22 06:58:36;;;;;;;14.28;6.55;;;;;;;-2.50;100.00;101222.26;3577906;81;99457;-83
2022/01/22 07:03:37;;;;;;;12.73;5.27;;;;;;;-2.53;100.00;101223.31;3596853;80;99104;-82
2022/01/22 07:08:38;;;;;;;13.37;6.57;;;;;;;-2.53;100.00;101239.48;3593144;80;99841;-82
2022/01/22 07:13:39;;;;;;;15.87;5.20;;;;;;;-2.52;100.00;101264.03;3570904;81;98424;-82
2022/01/22 07:18:40;;;;;;;9.90;4.87;;;;;;;-2.51;100.00;101274.52;3555270;81;99240;-82
2022/01/22 07:24:22;;;;;;;12.97;5.90;;;;;;;-2.49;100.00;101280.47;3588345;81;31873;-82
2022/01/22 07:28:45;;;;;;;15.28;5.05;;;;;;;-2.46;100.00;101286.64;3577153;81;99519;-83
2022/01/22 07:33:48;;;;;;;19.43;8.80;;;;;;;-2.41;100.00;101289.34;3587507;81;98995;-83
2022/01/22 07:38:49;;;;;;;22.90;9.78;;;;;;;-2.36;100.00;101302.81;3583942;81;99239;-82
2022/01/22 07:43:49;;;;;;;21.27;8.97;;;;;;;-2.30;100.00;101303.64;3600917;80;99591;-83
2022/01/22 07:48:50;;;;;;;18.33;6.33;;;;;;;-2.25;100.00;101304.42;3587572;81;99504;-84
2022/01/22 07:53:51;;;;;;;9.43;4.97;;;;;;;-2.19;100.00;101310.08;3601563;81;31442;-83
2022/01/22 07:58:52;;;;;;;9.70;4.30;;;;;;;-2.11;100.00;101319.51;3575499;81;99136;-84
2022/01/22 08:03:53;;;;;;;9.03;3.67;;;;;;;-2.02;100.00;101319.23;3590337;81;99183;-83
2022/01/22 08:08:54;;;;;;;8.87;3.50;;;;;;;-1.94;100.00;101324.06;3565813;81;99124;-82
2022/01/22 08:13:55;;;;;;;8.90;3.30;;;;;;;-1.86;100.00;101327.02;3565957;80;99132;-82
2022/01/22 08:18:56;;;;;;;7.60;3.27;;;;;;;-1.77;100.00;101329.43;3496985;81;99079;-82
2022/01/22 08:23:57;;;;;;;11.10;4.23;;;;;;;-1.65;100.00;101338.59;3494548;83;99578;-82
2022/01/22 08:29:00;;;;;;;14.73;4.27;;;;;;;-1.56;100.00;101344.48;3486677;82;99211;-82
2022/01/22 08:39:22;;;;;;;7.40;3.15;;;;;;;-1.42;100.00;101349.55;3489689;82;99011;-83
2022/01/22 08:44:24;;;;;;;10.60;3.50;;;;;;;-1.30;100.00;101344.67;3498526;83;98994;-82
2022/01/22 08:49:25;;;;;;;8.43;3.00;;;;;;;-1.19;100.00;101353.52;3495735;81;99376;-82
2022/01/22 08:54:26;;;;;;;8.60;2.72;;;;;;;-1.09;100.00;101371.04;3501339;83;99024;-82
2022/01/22 08:59:27;;;;;;;11.17;2.53;;;;;;;-0.98;100.00;101376.13;3494685;82;99344;-82
2022/01/22 09:04:28;;;;;;;12.50;3.50;;;;;;;-0.87;100.00;101376.34;3489986;83;99137;-83
2022/01/22 09:09:29;;;;;;;8.13;3.67;;;;;;;-0.75;100.00;101386.80;3481175;82;98941;-83
2022/01/22 09:14:30;;;;;;;10.20;3.80;;;;;;;-0.66;100.00;101395.39;3504276;81;98894;-81
2022/01/22 09:19:34;;;;;;;8.73;3.47;;;;;;;-0.51;100.00;101398.56;3567807;81;99198;-83
2022/01/22 09:24:34;;;;;;;10.37;3.50;;;;;;;-0.43;99.67;101406.07;3552694;81;98803;-82
2022/01/22 09:29:36;;;;;;;11.37;4.03;;;;;;;-0.33;99.53;101418.17;3576465;81;99026;-83
2022/01/22 09:34:38;;;;;;;8.87;3.10;;;;;;;-0.22;99.30;101427.84;3571438;81;97869;-83
2022/01/22 09:39:38;;;;;;;11.00;3.30;;;;;;;-0.15;98.92;101440.75;3545571;81;98493;-83
2022/01/22 09:44:41;;;;;;;12.13;3.20;;;;;;;-0.05;98.83;101442.59;3539383;80;98330;-89
2022/01/22 09:49:45;;;;;;;9.58;3.75;;;;;;;0.03;98.44;101434.68;3484944;83;98926;-92
2022/01/22 09:54:46;;;;;;;12.68;5.40;;;;;;;0.14;98.17;101455.69;3485435;83;98579;-89
2022/01/22 09:59:47;;;;;;;12.90;5.77;;;;;;;0.20;98.15;101456.73;3475881;82;98424;-90
2022/01/22 10:04:52;;;;;;;11.90;5.57;;;;;;;0.27;97.64;101454.50;3459106;84;98542;-90
2022/01/22 10:10:08;;;;;;;13.95;4.70;;;;;;;0.31;97.08;101452.84;3515994;82;98574;-90
2022/01/22 10:15:18;;;;;;;9.20;2.75;;;;;;;0.36;96.92;101456.87;3525385;81;25798;-92
2022/01/22 10:20:27;;;;;;;7.60;2.92;;;;;;;0.42;96.33;101471.97;3510012;82;98578;-88
2022/01/22 10:25:37;;;;;;;12.40;3.02;;;;;;;0.49;96.25;101462.14;3524559;82;98863;-90
2022/01/22 10:30:42;;;;;;;9.78;3.35;;;;;;;0.52;96.10;101474.59;3456043;83;98737;-88
2022/01/22 10:35:39;;;;;;;8.83;2.62;;;;;;;0.63;95.83;101472.59;3474340;83;31533;-88
2022/01/22 10:40:42;;;;;;;11.57;4.20;;;;;;;0.73;95.59;101475.20;3465569;83;98486;-87
2022/01/22 10:46:20;;;;;;;10.82;4.20;;;;;;;0.78;95.26;101473.23;3472339;84;98514;-87
2022/01/22 10:51:18;;;;;;;8.95;3.58;;;;;;;0.82;94.82;101474.28;3502879;82;98693;-87
2022/01/22 10:56:22;;;;;;;12.13;3.47;;;;;;;0.88;94.54;101483.97;3519922;82;98608;-87
2022/01/22 11:01:28;;;;;;;12.30;4.17;;;;;;;0.91;94.30;101493.42;3517342;82;98793;-86
2022/01/22 11:06:28;;;;;;;16.67;5.75;;;;;;;0.97;94.00;101494.98;3519532;82;99127;-87
2022/01/22 11:11:31;;;;;;;13.43;3.60;;;;;;;1.01;93.33;101495.50;3526807;81;98581;-86
2022/01/22 11:16:32;;;;;;;12.40;3.50;;;;;;;1.02;93.17;101510.66;3485927;83;98545;-88
2022/01/22 11:21:43;;;;;;;11.30;3.37;;;;;;;1.06;92.69;101511.70;3473820;83;98900;-87
2022/01/22 11:26:57;;;;;;;11.10;3.25;;;;;;;1.16;93.09;101514.84;3470338;83;98687;-86
2022/01/22 11:32:03;;;;;;;14.15;4.10;;;;;;;1.21;92.66;101525.08;3405997;84;98631;-85
2022/01/22 11:37:19;;;;;;;67.70;26.23;;;;;;;1.26;92.14;101528.30;3466235;83;98764;-86
2022/01/22 11:42:21;;;;;;;22.15;10.35;;;;;;;1.28;90.99;101542.36;3440728;84;98910;-86
2022/01/22 11:47:22;;;;;;;16.30;5.35;;;;;;;1.29;91.66;101541.27;3510908;83;31561;-86
2022/01/22 11:52:26;;;;;;;13.25;5.00;;;;;;;1.25;91.33;101532.08;3502813;83;98547;-86
2022/01/22 11:57:30;;;;;;;19.65;6.12;;;;;;;1.18;90.87;101537.87;3497540;83;99168;-86
2022/01/22 12:02:31;;;;;;;16.77;7.87;;;;;;;1.09;90.18;101536.88;3502406;83;98768;-86
2022/01/22 12:07:35;;;;;;;10.27;3.87;;;;;;;1.03;90.53;101533.14;3509492;83;98607;-85
2022/01/22 12:18:10;;;;;;;11.78;3.58;;;;;;;0.95;90.27;101548.68;3508630;83;32045;-86
2022/01/22 12:23:17;;;;;;;8.38;2.90;;;;;;;0.93;89.95;101553.59;3516422;83;98412;-86
2022/01/22 12:28:40;;;;;;;9.13;3.05;;;;;;;0.90;89.65;101556.86;3508453;83;98468;-86
2022/01/22 12:33:48;;;;;;;9.80;3.40;;;;;;;0.79;89.49;101547.20;3473417;83;98363;-85
2022/01/22 12:39:11;;;;;;;9.23;3.27;;;;;;;0.81;89.18;101562.09;3508404;83;98466;-84
2022/01/22 12:44:30;;;;;;;11.38;4.15;;;;;;;0.81;89.32;101566.69;3521357;82;98546;-86
2022/01/22 12:49:32;;;;;;;9.93;3.30;;;;;;;0.83;89.09;101573.44;3414061;84;98751;-83
2022/01/22 12:54:38;;;;;;;7.08;2.58;;;;;;;0.81;88.59;101588.36;3440856;84;98696;-84
2022/01/22 13:00:09;;;;;;;13.55;4.58;;;;;;;0.76;87.29;101595.18;3425833;84;98244;-84
2022/01/22 13:05:05;;;;;;;8.35;2.65;;;;;;;0.74;87.91;101600.08;3475157;84;98370;-84
2022/01/22 13:10:09;;;;;;;9.85;3.67;;;;;;;0.69;87.59;101600.13;3467231;83;98500;-85
2022/01/22 13:15:11;;;;;;;11.10;4.37;;;;;;;0.66;87.36;101600.14;3520799;82;98503;-84
2022/01/22 13:20:20;;;;;;;11.13;4.23;;;;;;;0.62;87.58;101597.72;3466715;83;98669;-84
2022/01/22 13:25:22;;;;;;;11.15;4.55;;;;;;;0.62;87.26;101603.14;3478854;83;98752;-85
2022/01/22 13:30:32;;;;;;;8.85;3.08;;;;;;;0.59;87.13;101606.97;3475324;83;99055;-85
2022/01/22 13:41:03;;;;;;;16.23;6.33;;;;;;;0.50;87.22;101620.86;3464311;83;98443;-85
2022/01/22 13:50:58;;;;;;;20.20;8.63;;;;;;;0.37;86.88;101623.65;3485861;83;84344;-87
2022/01/22 13:56:08;;;;;;;17.85;8.38;;;;;;;0.32;87.15;101634.51;3508144;83;98666;-85
2022/01/22 14:01:29;;;;;;;21.73;10.88;;;;;;;0.27;87.59;101635.06;3507233;83;98673;-85
2022/01/22 14:06:33;;;;;;;33.53;17.83;;;;;;;0.22;87.94;101641.33;3508074;83;98900;-85
2022/01/22 14:11:34;;;;;;;25.02;10.85;;;;;;;0.23;88.30;101648.92;3504621;83;98777;-85
2022/01/22 14:16:44;;;;;;;22.87;9.40;;;;;;;0.17;88.33;101648.69;3518047;83;98663;-85
2022/01/22 14:21:44;;;;;;;19.37;8.43;;;;;;;0.14;88.72;101664.11;3504993;83;98666;-85
2022/01/22 14:26:45;;;;;;;16.07;6.95;;;;;;;0.09;88.76;101670.91;3506898;83;98711;-85
2022/01/22 14:31:49;;;;;;;15.60;6.67;;;;;;;0.06;88.80;101671.47;3539569;81;98673;-87
2022/01/22 14:36:50;;;;;;;17.20;8.30;;;;;;;0.00;88.55;101676.64;3541863;82;98733;-88
2022/01/22 14:47:26;;;;;;;15.90;8.20;;;;;;;-0.04;88.75;101692.59;3490598;83;97861;-88
2022/01/22 14:52:28;;;;;;;24.15;10.15;;;;;;;-0.08;88.77;101694.78;3543136;82;99100;-84
2022/01/22 14:57:34;;;;;;;34.13;12.53;;;;;;;-0.12;89.18;101699.13;3539631;82;99103;-85
2022/01/22 15:02:37;;;;;;;28.80;10.75;;;;;;;-0.17;89.49;101691.58;3502585;83;99124;-88
2022/01/22 15:07:38;;;;;;;25.25;11.83;;;;;;;-0.24;89.49;101684.30;3525517;82;99073;-85
2022/01/22 15:12:41;;;;;;;21.20;9.53;;;;;;;-0.33;89.62;101687.30;3551297;82;99018;-85
2022/01/22 15:22:51;;;;;;;19.10;9.67;;;;;;;-0.42;90.31;101699.74;3449733;83;98855;-88
2022/01/22 15:27:53;;;;;;;28.95;12.68;;;;;;;-0.44;90.25;101700.56;3506956;83;98517;-87
2022/01/22 15:33:02;;;;;;;24.35;10.93;;;;;;;-0.52;90.39;101703.28;3504862;83;99100;-85
2022/01/22 15:37:59;;;;;;;20.57;8.07;;;;;;;-0.58;90.55;101709.78;3508056;83;98977;-85
2022/01/22 15:43:01;;;;;;;18.02;8.20;;;;;;;-0.63;90.76;101703.02;3496875;82;98856;-85
2022/01/22 15:48:04;;;;;;;17.32;8.20;;;;;;;-0.68;90.61;101707.61;3493455;82;28711;-85
2022/01/22 15:53:05;;;;;;;18.50;7.40;;;;;;;-0.71;90.88;101718.42;3514033;82;99015;-85
2022/01/22 15:58:06;;;;;;;17.07;8.53;;;;;;;-0.76;90.92;101727.91;3519771;82;98996;-88
2022/01/22 16:03:08;;;;;;;22.47;8.57;;;;;;;-0.82;90.89;101733.58;3468427;82;99061;-88
2022/01/22 16:08:09;;;;;;;31.47;14.10;;;;;;;-0.89;90.97;101741.94;3520579;82;99004;-86
2022/01/22 16:13:10;;;;;;;37.60;16.73;;;;;;;-0.95;91.01;101748.42;3524335;82;99191;-85
2022/01/22 16:18:11;;;;;;;38.93;17.43;;;;;;;-1.01;91.14;101750.85;3519519;82;34715;-88
2022/01/22 16:23:11;;;;;;;36.93;18.30;;;;;;;-1.03;91.40;101751.67;3513212;82;99304;-88
2022/01/22 16:28:13;;;;;;;32.43;15.47;;;;;;;-1.07;91.74;101752.45;3531089;82;99072;-85
2022/01/22 16:33:15;;;;;;;31.37;15.63;;;;;;;-1.13;91.91;101758.41;3508546;82;99237;-84
2022/01/22 16:38:15;;;;;;;99.40;40.23;;;;;;;-1.16;92.22;101762.98;3516823;82;99212;-86
2022/01/22 16:43:17;;;;;;;96.93;38.33;;;;;;;-1.17;92.29;101764.59;3520256;81;99362;-86
2022/01/22 16:58:59;;;;;;;90.03;36.83;;;;;;;-1.31;92.25;101782.39;3268774;88;99344;-85
2022/01/22 17:04:01;;;;;;;73.12;28.70;;;;;;;-1.33;92.54;101767.80;3451652;82;99149;-85
2022/01/22 17:14:15;;;;;;;34.55;16.42;;;;;;;-1.33;92.90;101771.85;3518326;82;99228;-86
2022/01/22 17:19:16;;;;;;;34.63;16.17;;;;;;;-1.34;92.93;101770.76;3500515;82;99260;-86
2022/01/22 17:24:17;;;;;;;32.27;13.63;;;;;;;-1.35;92.99;101779.94;3521424;83;34664;-85
2022/01/22 17:29:19;;;;;;;29.83;11.43;;;;;;;-1.34;93.08;101780.20;3511230;82;99522;-85
2022/01/22 17:34:20;;;;;;;30.90;12.90;;;;;;;-1.39;92.98;101772.91;3517929;82;99067;-85
2022/01/22 17:39:22;;;;;;;25.73;12.23;;;;;;;-1.42;93.28;101773.43;3508589;82;99183;-86
2022/01/22 17:44:32;;;;;;;26.70;11.03;;;;;;;-1.43;93.33;101773.16;3521678;82;99272;-85
2022/01/22 17:49:29;;;;;;;;;;;;;;;-1.44;93.62;101778.82;3491215;82;99148;-85
2022/01/22 17:54:30;;;;;;;47.60;18.83;;;;;;;-1.45;93.76;101776.67;3519229;82;34633;-85
2022/01/22 17:59:31;;;;;;;54.90;21.50;;;;;;;-1.47;93.79;101769.39;3442630;84;98862;-86
2022/01/22 18:04:34;;;;;;;48.90;21.23;;;;;;;-1.50;93.98;101766.38;3512944;82;99106;-86
2022/01/22 18:09:36;;;;;;;38.37;18.43;;;;;;;-1.49;94.20;101759.94;3511121;82;99239;-86
2022/01/22 18:14:37;;;;;;;50.20;21.85;;;;;;;-1.53;94.29;101765.02;3512220;83;99229;-86
2022/01/22 18:19:38;;;;;;;73.47;29.20;;;;;;;-1.53;94.36;101768.28;3507121;83;99253;-86
2022/01/22 18:24:39;;;;;;;95.70;35.27;;;;;;;-1.55;94.48;101767.19;3515261;82;34609;-86
2022/01/22 18:29:40;;;;;;;89.10;35.13;;;;;;;-1.57;94.76;101757.73;3495539;82;99210;-85
2022/01/22 18:34:41;;;;;;;92.60;33.13;;;;;;;-1.58;94.94;101765.56;3510761;82;99041;-87
2022/01/22 18:39:42;;;;;;;74.33;30.90;;;;;;;-1.57;95.05;101770.70;3445863;84;99172;-86
2022/01/22 18:44:43;;;;;;;51.97;24.27;;;;;;;-1.54;94.86;101774.20;3472254;82;99287;-86
2022/01/22 18:49:44;;;;;;;48.23;22.73;;;;;;;-1.54;95.00;101772.86;3518131;82;99204;-86
2022/01/22 18:54:45;;;;;;;50.63;21.83;;;;;;;-1.53;95.16;101774.47;3497271;82;99138;-86
2022/01/22 18:59:46;;;;;;;58.25;24.60;;;;;;;-1.54;95.24;101773.41;3516304;82;99054;-88
2022/01/22 19:04:47;;;;;;;54.55;23.20;;;;;;;-1.56;95.27;101776.89;3523746;82;98973;-86
2022/01/22 19:09:49;;;;;;;76.23;30.03;;;;;;;-1.58;95.27;101778.50;3512927;82;99236;-86
2022/01/22 19:14:51;;;;;;;67.23;27.53;;;;;;;-1.60;95.63;101779.31;3518989;82;99186;-86
2022/01/22 19:19:52;;;;;;;78.92;32.05;;;;;;;-1.62;95.38;101778.78;3523102;82;99192;-88
2022/01/22 19:25:14;;;;;;;100.65;38.80;;;;;;;-1.66;95.39;101779.55;3512143;82;99325;-86
2022/01/22 19:30:03;;;;;;;113.62;42.13;;;;;;;-1.73;95.60;101791.95;3518225;82;98998;-86
2022/01/22 19:35:06;;;;;;;94.10;40.50;;;;;;;-1.77;95.71;101802.16;3507283;82;99485;-86
2022/01/22 19:40:11;;;;;;;92.70;37.58;;;;;;;-1.78;96.02;101792.45;3512352;82;99030;-86
2022/01/22 19:45:11;;;;;;;97.60;37.33;;;;;;;-1.80;96.04;101786.52;3498034;83;99292;-86
2022/01/22 19:50:14;;;;;;;89.73;38.97;;;;;;;-1.84;95.86;101780.83;3501583;83;99391;-86
2022/01/22 19:55:15;;;;;;;93.47;38.95;;;;;;;-1.92;95.78;101794.01;3433716;84;98524;-86
2022/01/22 20:00:18;;;;;;;97.80;38.20;;;;;;;-1.94;96.05;101798.31;3501069;83;98940;-86
2022/01/22 20:05:19;;;;;;;70.40;32.23;;;;;;;-1.98;96.12;101794.50;3483908;83;99011;-86
2022/01/22 20:10:30;;;;;;;62.23;28.60;;;;;;;-2.00;96.03;101777.78;3505487;83;99139;-86
2022/01/22 20:15:33;;;;;;;57.67;24.12;;;;;;;-1.99;96.04;101766.44;3478366;83;99228;-86
2022/01/22 20:20:34;;;;;;;64.05;28.35;;;;;;;-2.12;95.83;101774.48;3500129;83;99513;-87
2022/01/22 20:25:40;;;;;;;63.73;29.10;;;;;;;-2.23;96.37;101785.45;3504896;83;99277;-86
2022/01/22 20:30:43;;;;;;;64.77;30.15;;;;;;;-2.31;96.27;101785.39;3461738;83;99102;-85
2022/01/22 20:35:44;;;;;;;54.30;23.55;;;;;;;-2.30;96.32;101798.34;3507184;83;35377;-86
2022/01/22 20:40:48;;;;;;;48.00;21.90;;;;;;;-2.32;96.68;101799.12;3504495;83;99175;-86
2022/01/22 20:45:50;;;;;;;49.35;20.72;;;;;;;-2.34;96.58;101797.23;3492113;83;99190;-89
2022/01/22 20:50:51;;;;;;;48.85;21.68;;;;;;;-2.38;96.92;101794.24;3494898;83;99432;-88
2022/01/22 20:55:52;;;;;;;48.87;23.00;;;;;;;-2.46;96.49;101810.88;3437691;84;99326;-91
2022/01/22 21:00:53;;;;;;;53.33;22.93;;;;;;;-2.53;96.78;101802.73;3504674;82;99206;-86
2022/01/22 21:05:54;;;;;;;41.83;19.57;;;;;;;-2.55;97.10;101811.09;3510175;82;32295;-85
2022/01/22 21:10:55;;;;;;;48.17;20.60;;;;;;;-2.60;96.77;101806.18;3427776;84;99193;-86
2022/01/22 21:15:58;;;;;;;56.83;24.03;;;;;;;-2.62;97.03;101815.06;3505996;82;99182;-89
2022/01/22 21:20:59;;;;;;;91.80;31.00;;;;;;;-2.63;96.96;101816.14;3491749;82;99126;-86
2022/01/22 21:26:01;;;;;;;80.00;27.93;;;;;;;-2.62;97.57;101817.77;3508244;82;99262;-86
2022/01/22 21:31:02;;;;;;;75.03;29.60;;;;;;;-2.62;97.43;101815.86;3457579;83;99584;-86
2022/01/22 21:36:09;;;;;;;82.47;28.63;;;;;;;-2.66;97.04;101813.42;3448777;84;32195;-88
2022/01/22 21:41:11;;;;;;;64.45;25.23;;;;;;;-2.73;97.00;101807.96;3457812;83;99225;-88
2022/01/22 21:46:12;;;;;;;56.45;23.12;;;;;;;-2.79;97.42;101819.21;3469438;83;98988;-88
2022/01/22 21:51:13;;;;;;;43.00;18.30;;;;;;;-2.82;97.48;101827.81;3473318;83;99230;-88
2022/01/22 21:56:14;;;;;;;42.47;19.30;;;;;;;-2.86;97.57;101822.66;3480668;83;99134;-88
2022/01/22 22:01:17;;;;;;;46.83;19.00;;;;;;;-2.86;97.86;101819.95;3469224;83;101265;-88
2022/01/22 22:06:19;;;;;;;41.48;16.95;;;;;;;-2.85;97.92;101815.40;3489626;83;34776;-86
2022/01/22 22:11:21;;;;;;;35.52;15.30;;;;;;;-2.88;97.93;101818.06;3476819;83;99212;-89
2022/01/22 22:16:22;;;;;;;41.53;16.87;;;;;;;-2.90;98.00;101819.38;3473887;83;99110;-88
2022/01/22 22:21:22;;;;;;;45.33;20.60;;;;;;;-2.96;97.93;101817.16;3447274;83;99168;-88
2022/01/22 22:26:24;;;;;;;39.60;17.10;;;;;;;-2.96;98.38;101831.97;3473725;83;99237;-86
2022/01/22 22:31:27;;;;;;;34.67;16.67;;;;;;;-2.94;98.25;101826.34;3475554;83;99191;-86
2022/01/22 22:36:29;;;;;;;38.10;16.97;;;;;;;-2.93;98.35;101839.56;3478508;83;28901;-86
2022/01/22 22:41:30;;;;;;;36.38;16.50;;;;;;;-2.91;98.54;101840.11;3476502;83;99078;-86
2022/01/22 22:46:31;;;;;;;33.13;14.80;;;;;;;-2.88;98.50;101842.31;3488247;83;99114;-87
2022/01/22 22:51:32;;;;;;;36.90;15.80;;;;;;;-2.85;98.86;101826.97;3497872;83;99189;-86
2022/01/22 22:56:34;;;;;;;38.73;16.73;;;;;;;-2.83;98.98;101824.85;3470955;83;99306;-86
2022/01/22 23:01:34;;;;;;;43.43;19.77;;;;;;;-2.83;98.98;101824.85;3482637;83;99564;-86
2022/01/22 23:06:35;;;;;;;35.90;16.03;;;;;;;-2.79;99.25;101835.92;3503678;83;32754;-86
2022/01/22 23:11:40;;;;;;;36.83;15.70;;;;;;;-2.76;99.47;101838.92;3493976;83;98877;-86
2022/01/22 23:16:53;;;;;;;31.48;13.93;;;;;;;-2.69;99.33;101818.52;3509513;83;99024;-86
2022/01/22 23:21:54;;;;;;;31.45;14.93;;;;;;;-2.65;99.38;101812.34;3538033;82;99288;-86
2022/01/22 23:26:50;;;;;;;38.95;16.67;;;;;;;-2.59;99.41;101805.93;3506629;83;99280;-86
2022/01/22 23:31:55;;;;;;;38.70;17.37;;;;;;;-2.55;99.42;101803.53;3492551;83;99222;-86
2022/01/22 23:57:54;;;;;;;42.90;18.62;;;;;;;-2.31;100.00;101851.97;3471461;83;99773;-86
